Portada
METAR-TAF:

METAR-TAF

Aeroports :

Jaipur, Índia

latitud: 26-49N, longitud: 075-48E, altitud: 385 m

Observació

L'informe es va fer fa 23 minuts, a les 20:00 UTC
Vent 5 kt del Est/Nord-Est
Temperatura 29°C
Humitat 89%
Pressió 1001 hPa
Visibilitat: 4000 m
Núvols disperses a una alçada de 10000 ft
boirina,

METAR: VIJP 152000Z 07005KT 4000 BR SCT100 29/27 Q1001 NOSIG

Hora: 01:53 (20:23 UTC)

Pronòstic

L'informe es va fer fa 3 hores i 23 minuts, a les 17:00 UTC
Pronòstic vàlid del 15 a les 18 UTC al 16 a les 03 UTC
Vent 6 kt del Est
Visibilitat: 4000 m
Escasses núvols a una alçada de 3000 ft
Núvols disperses a una alçada de 10000 ft
boirina
Evolucionant progressivament
l' 15 a les 22 UTC al 16 a les 00 UTC
Vent 8 kt del Est/Sud-Est
Visibilitat: 3000 m
Cel ennuvolat a una alçada de 2500 ft
Cel ennuvolat a una alçada de 9000 ft
plugim, boirina,

TAF: VIJP 151700Z 1518/1603 09006KT 4000 BR FEW030 SCT100 BECMG 1522/1600 12008KT 3000 DZ BR BKN025 BKN090

Observacions i pronòstics meteorològics de més de 4000 aeroports (METAR i TAF).

Les estacions disponibles són els punts grocs i vermells al mapa.

Posi el ratolí al punt desitjat per veure el nom de l'estació.

Feu clic per veure les observacions i els pronòstics meteorològics.

Per canviar el mapa: feu clic els botons verds amb una creu de color negre per apropar; al botó verd amb un guió per allunyar la imatge; o en les fletxes verdes per a mapes adjacents.


METAR-TAF: